Time;durP1;ratioP1;P1;durP2;ratioP2;P2;SDS_P1;SDS_P2;PMS_P1;PMS_P2;Temp;Humidity;BMP_temperature;BMP_pressure;BME280_temperature;BME280_humidity;BME280_pressure;Samples;Min_cycle;Max_cycle;Signal;HPM_P1;HPM_P2
2021/06/21 00:02:18;;;;;;;2.60;2.10;;;;;;;23.06;47.48;101283.44;4992322;28;20087;-70
2021/06/21 00:04:43;;;;;;;3.15;2.03;;;;;;;23.06;47.65;101277.25;4991406;28;20033;-70
2021/06/21 00:07:09;;;;;;;3.97;2.20;;;;;;;23.07;47.85;101276.22;4992274;28;20049;-70
2021/06/21 00:09:34;;;;;;;2.45;1.88;;;;;;;23.07;47.88;101284.25;5009333;28;20084;-69
2021/06/21 00:12:00;;;;;;;3.95;2.20;;;;;;;23.07;47.57;101282.41;4978171;28;20572;-70
2021/06/21 00:14:25;;;;;;;2.85;2.05;;;;;;;23.06;47.49;101275.41;4991606;28;20494;-73
2021/06/21 00:16:51;;;;;;;3.13;2.30;;;;;;;23.07;47.94;101286.91;4992253;28;20092;-70
2021/06/21 00:19:16;;;;;;;3.65;2.30;;;;;;;23.07;47.75;101292.28;5009129;28;20560;-70
2021/06/21 00:21:42;;;;;;;3.40;2.60;;;;;;;23.07;47.73;101294.94;4975080;28;20354;-70
2021/06/21 00:24:07;;;;;;;3.15;2.30;;;;;;;23.08;47.58;101293.91;4996658;28;20029;-70
2021/06/21 00:26:33;;;;;;;3.97;2.05;;;;;;;23.06;47.76;101294.13;4991805;28;20038;-70
2021/06/21 00:28:58;;;;;;;3.08;2.13;;;;;;;23.07;47.82;101293.09;4975675;28;20041;-70
2021/06/21 00:31:24;;;;;;;2.78;2.22;;;;;;;23.08;47.77;101296.59;4992084;28;20125;-69
2021/06/21 00:33:50;;;;;;;3.13;2.17;;;;;;;23.08;47.87;101302.78;4988418;28;20041;-70
2021/06/21 00:36:15;;;;;;;3.63;2.15;;;;;;;23.07;47.80;101303.81;4981242;28;20038;-69
2021/06/21 00:38:41;;;;;;;4.22;2.20;;;;;;;23.08;47.71;101301.94;4974917;28;20033;-69
2021/06/21 00:41:06;;;;;;;3.90;2.08;;;;;;;23.08;47.43;101294.75;4976081;28;20482;-70
2021/06/21 00:43:32;;;;;;;3.83;2.35;;;;;;;23.08;47.65;101301.94;4990950;28;20045;-70
2021/06/21 00:45:57;;;;;;;3.30;2.20;;;;;;;23.09;47.81;101307.09;4991297;28;20037;-70
2021/06/21 00:48:23;;;;;;;3.13;2.22;;;;;;;23.08;47.54;101307.28;5008609;28;20044;-71
2021/06/21 00:50:48;;;;;;;3.00;2.17;;;;;;;23.08;47.52;101307.28;4984661;28;20466;-70
2021/06/21 00:53:14;;;;;;;3.03;2.03;;;;;;;23.07;47.79;101311.81;4991195;28;20128;-70
2021/06/21 00:55:41;;;;;;;3.22;2.30;;;;;;;23.08;47.91;101313.47;5008532;28;20084;-70
2021/06/21 00:58:07;;;;;;;2.85;2.35;;;;;;;23.08;47.48;101308.13;4991441;28;20670;-70
2021/06/21 01:00:32;;;;;;;2.80;2.10;;;;;;;23.07;47.58;101305.66;4974179;28;20117;-70
2021/06/21 01:03:03;;;;;;;3.05;2.40;;;;;;;23.08;47.45;101307.28;4991370;28;20034;-70
2021/06/21 01:05:31;;;;;;;3.40;2.00;;;;;;;23.07;47.34;101311.81;4971101;28;20042;-70
2021/06/21 01:07:57;;;;;;;4.00;2.13;;;;;;;23.07;47.57;101311.81;4975213;28;20122;-70
2021/06/21 01:10:24;;;;;;;2.70;1.90;;;;;;;23.07;47.24;101311.81;4986018;28;20125;-70
2021/06/21 01:13:14;;;;;;;2.33;2.00;;;;;;;23.06;47.58;101312.84;4982747;28;20088;-69
2021/06/21 01:15:44;;;;;;;3.50;1.98;;;;;;;23.08;47.62;101313.47;4978084;28;20077;-71
2021/06/21 01:18:14;;;;;;;2.97;2.15;;;;;;;23.07;47.53;101325.22;4991722;28;20100;-71
2021/06/21 01:20:52;;;;;;;2.90;2.10;;;;;;;23.05;47.35;101327.28;4984275;28;20097;-70
2021/06/21 01:23:36;;;;;;;3.17;2.00;;;;;;;23.08;47.55;101326.03;5002734;28;20504;-70
2021/06/21 01:26:17;;;;;;;2.47;2.00;;;;;;;23.06;47.47;101328.09;4980028;28;20123;-70
2021/06/21 01:29:01;;;;;;;3.20;1.92;;;;;;;23.07;47.72;101327.06;5008311;28;20152;-70
2021/06/21 01:32:06;;;;;;;2.75;1.90;;;;;;;23.01;47.35;101336.72;5008291;28;20125;-69
2021/06/21 01:34:34;;;;;;;3.67;1.95;;;;;;;23.07;47.23;101335.91;4968183;28;20037;-71
2021/06/21 01:37:02;;;;;;;2.78;1.80;;;;;;;23.07;47.57;101338.59;4969574;28;20105;-70
2021/06/21 01:39:31;;;;;;;3.03;1.83;;;;;;;23.07;47.27;101338.59;5008306;28;20088;-70
2021/06/21 01:42:09;;;;;;;3.65;2.10;;;;;;;23.07;47.58;101333.22;5008740;28;20044;-69
2021/06/21 01:44:39;;;;;;;4.00;1.80;;;;;;;23.07;47.39;101332.41;4997987;28;20137;-70
2021/06/21 01:47:06;;;;;;;2.72;1.83;;;;;;;23.07;47.43;101335.91;5008530;28;20038;-70
2021/06/21 01:49:37;;;;;;;3.92;2.10;;;;;;;23.06;47.51;101336.94;5007497;28;20108;-70
2021/06/21 01:52:05;;;;;;;2.90;1.90;;;;;;;23.06;47.26;101326.25;5008524;28;20034;-69
2021/06/21 01:54:32;;;;;;;2.65;1.77;;;;;;;23.08;47.31;101331.38;5007884;28;20029;-69
2021/06/21 01:57:03;;;;;;;3.67;2.20;;;;;;;23.07;47.24;101322.53;4991038;28;20095;-70
2021/06/21 01:59:29;;;;;;;3.88;1.90;;;;;;;23.08;47.00;101326.84;4991238;28;20481;-70
2021/06/21 02:01:57;;;;;;;3.17;1.80;;;;;;;23.08;46.88;101315.31;5008763;28;20045;-70
2021/06/21 02:04:25;;;;;;;3.58;1.95;;;;;;;23.08;47.12;101320.69;5007349;28;20049;-70
2021/06/21 02:06:52;;;;;;;2.25;1.77;;;;;;;23.09;47.34;101319.66;4990729;28;20049;-70
2021/06/21 02:09:23;;;;;;;3.55;2.35;;;;;;;23.07;47.06;101330.56;4990469;28;20030;-70
2021/06/21 02:11:52;;;;;;;2.88;1.83;;;;;;;23.07;47.11;101327.06;4997336;28;20029;-70
2021/06/21 02:14:22;;;;;;;2.75;1.55;;;;;;;23.08;47.29;101331.38;4994212;28;20127;-70
2021/06/21 02:16:51;;;;;;;2.85;1.60;;;;;;;23.08;47.25;101342.09;4992022;28;20062;-69
2021/06/21 02:19:18;;;;;;;3.03;1.77;;;;;;;23.08;46.90;101332.19;5000327;28;20105;-69
2021/06/21 02:21:45;;;;;;;2.72;1.60;;;;;;;23.07;47.16;101330.56;4977616;28;20609;-70
2021/06/21 02:24:14;;;;;;;2.60;1.60;;;;;;;23.07;47.28;101332.41;4994246;28;20045;-70
2021/06/21 02:26:40;;;;;;;2.00;1.40;;;;;;;23.08;46.96;101340.22;4981385;28;20039;-70
2021/06/21 02:29:06;;;;;;;2.92;1.67;;;;;;;23.07;47.06;101341.25;4982691;28;20056;-70
2021/06/21 02:31:32;;;;;;;2.47;1.50;;;;;;;23.07;47.23;101341.25;5011880;28;20521;-70
2021/06/21 02:33:58;;;;;;;2.72;1.60;;;;;;;23.07;47.09;101335.91;4978011;28;20042;-70
2021/06/21 02:36:24;;;;;;;2.92;1.88;;;;;;;23.08;46.57;101340.22;4997889;28;20029;-70
2021/06/21 02:38:51;;;;;;;3.53;1.70;;;;;;;23.07;46.89;101343.13;5009528;28;20057;-70
2021/06/21 02:41:17;;;;;;;1.90;1.40;;;;;;;23.07;47.00;101343.94;4984407;28;20038;-70
2021/06/21 02:43:43;;;;;;;2.50;1.70;;;;;;;23.08;46.93;101344.75;4988959;28;20041;-70
2021/06/21 02:46:08;;;;;;;2.90;1.80;;;;;;;23.07;47.01;101351.97;4993556;28;20125;-70
2021/06/21 02:48:34;;;;;;;1.73;1.35;;;;;;;23.07;47.01;101353.81;5010299;28;20381;-70
2021/06/21 02:51:02;;;;;;;3.75;1.73;;;;;;;23.06;46.71;101347.66;4997722;28;20069;-70
2021/06/21 02:53:40;;;;;;;2.67;1.20;;;;;;;23.07;46.83;101351.97;4993345;28;20038;-70
2021/06/21 02:56:44;;;;;;;3.15;1.30;;;;;;;23.03;46.98;101356.06;5011089;28;20052;-70
2021/06/21 02:59:12;;;;;;;2.38;1.40;;;;;;;23.06;47.15;101357.53;5010596;28;20401;-70
2021/06/21 03:01:45;;;;;;;4.20;1.65;;;;;;;23.05;46.66;101350.53;4993211;28;20449;-70
2021/06/21 03:04:12;;;;;;;2.33;1.40;;;;;;;23.06;46.72;101354.84;4992288;28;20042;-70
2021/06/21 03:06:38;;;;;;;2.55;1.50;;;;;;;23.06;46.60;101357.53;4985451;28;20034;-69
2021/06/21 03:09:04;;;;;;;2.35;1.45;;;;;;;23.06;46.96;101361.03;4987333;28;20121;-70
2021/06/21 03:11:32;;;;;;;2.80;1.30;;;;;;;23.05;47.02;101364.72;4993185;28;20307;-69
2021/06/21 03:13:58;;;;;;;3.35;1.50;;;;;;;23.06;46.96;101366.38;5010730;28;20044;-71
2021/06/21 03:16:26;;;;;;;2.58;1.50;;;;;;;23.06;46.84;101376.25;5010907;28;20065;-70
2021/06/21 03:18:54;;;;;;;2.47;1.42;;;;;;;23.06;46.96;101373.59;4993051;28;20149;-70
2021/06/21 03:21:20;;;;;;;3.45;1.55;;;;;;;23.05;46.74;101375.44;4992332;28;20444;-70
2021/06/21 03:23:51;;;;;;;2.63;1.45;;;;;;;23.05;47.04;101383.47;4992058;28;20125;-70
2021/06/21 03:26:17;;;;;;;2.30;1.40;;;;;;;23.06;46.90;101382.44;5011300;28;20030;-69
2021/06/21 03:28:42;;;;;;;2.63;1.40;;;;;;;23.06;46.91;101392.31;5010111;28;20048;-70
2021/06/21 03:31:08;;;;;;;2.88;1.38;;;;;;;23.06;46.84;101393.13;4973803;28;20057;-70
2021/06/21 03:33:36;;;;;;;2.53;1.35;;;;;;;23.06;46.91;101393.13;4991280;28;20045;-71
2021/06/21 03:36:02;;;;;;;2.42;1.10;;;;;;;23.06;46.67;101395.00;4992926;28;20033;-70
2021/06/21 03:38:29;;;;;;;2.83;1.38;;;;;;;23.08;46.87;101392.94;4975474;28;20116;-70
2021/06/21 03:41:00;;;;;;;2.53;1.40;;;;;;;23.07;46.84;101396.63;4983567;28;20438;-70
2021/06/21 03:43:28;;;;;;;2.38;1.40;;;;;;;23.07;46.75;101402.00;5006026;28;20049;-70
2021/06/21 03:45:59;;;;;;;2.20;1.50;;;;;;;23.06;46.87;101395.00;4992552;28;20033;-70
2021/06/21 03:48:26;;;;;;;2.30;1.48;;;;;;;23.06;46.76;101403.84;5010312;28;20041;-72
2021/06/21 03:50:51;;;;;;;2.83;1.40;;;;;;;23.06;46.69;101406.53;5009495;28;20049;-70
2021/06/21 03:53:19;;;;;;;1.98;1.40;;;;;;;23.06;46.77;101405.69;4975941;28;20061;-70
2021/06/21 03:55:45;;;;;;;2.10;1.20;;;;;;;23.05;46.73;101404.88;4992112;28;20026;-70
2021/06/21 03:58:11;;;;;;;1.75;1.05;;;;;;;23.06;46.73;101406.53;4976005;28;20112;-70
2021/06/21 04:00:37;;;;;;;2.03;1.30;;;;;;;23.06;46.83;101405.69;5009775;28;20037;-70
2021/06/21 04:03:04;;;;;;;2.65;1.33;;;;;;;23.07;46.76;101412.69;4992177;28;20037;-71
2021/06/21 04:05:30;;;;;;;2.40;1.23;;;;;;;23.06;46.53;101405.69;4973519;28;20100;-70
2021/06/21 04:07:56;;;;;;;2.63;1.23;;;;;;;23.06;46.90;101403.03;5009801;28;20064;-69
2021/06/21 04:10:26;;;;;;;1.83;1.10;;;;;;;23.04;46.65;101403.22;4992461;28;20061;-70
2021/06/21 04:12:54;;;;;;;2.08;1.30;;;;;;;23.06;46.88;101411.03;5005202;28;20029;-70
2021/06/21 04:15:28;;;;;;;3.63;1.40;;;;;;;23.05;46.58;101407.56;4991346;28;20046;-69
2021/06/21 04:17:54;;;;;;;2.38;1.25;;;;;;;23.04;46.45;101413.94;5001258;28;20041;-70
2021/06/21 04:20:19;;;;;;;2.58;1.10;;;;;;;23.06;46.57;101411.03;4975440;28;20038;-70
2021/06/21 04:22:46;;;;;;;2.88;1.40;;;;;;;23.04;46.65;101413.94;4983507;28;20500;-70
2021/06/21 04:25:14;;;;;;;3.58;1.25;;;;;;;23.05;46.42;101415.56;4986977;28;20044;-71
2021/06/21 04:27:40;;;;;;;4.70;1.40;;;;;;;23.05;46.50;101414.75;4963861;28;20438;-70
2021/06/21 04:30:12;;;;;;;1.92;1.10;;;;;;;23.06;46.70;101429.78;4991812;28;20029;-70
2021/06/21 04:32:38;;;;;;;2.60;1.10;;;;;;;23.03;46.60;101428.31;4989133;28;20394;-70
2021/06/21 04:35:06;;;;;;;3.03;1.30;;;;;;;23.04;46.28;101430.00;4990540;28;20026;-70
2021/06/21 04:37:31;;;;;;;2.15;1.08;;;;;;;23.05;46.41;101438.84;4992023;28;20062;-71
2021/06/21 04:39:57;;;;;;;2.00;1.02;;;;;;;23.04;46.51;101445.19;4973772;28;20076;-70
2021/06/21 04:42:23;;;;;;;3.17;1.10;;;;;;;23.04;46.32;101443.38;4979422;28;20038;-70
2021/06/21 04:44:49;;;;;;;3.05;1.30;;;;;;;23.04;46.34;101450.53;4971678;28;20077;-70
2021/06/21 04:47:15;;;;;;;3.20;1.20;;;;;;;23.04;46.45;101455.91;4973812;28;20084;-69
2021/06/21 04:49:40;;;;;;;1.73;1.00;;;;;;;23.03;46.60;101455.06;4970431;28;20034;-70
2021/06/21 04:52:09;;;;;;;2.40;1.15;;;;;;;23.04;46.46;101455.91;4987913;28;20034;-70
2021/06/21 04:54:35;;;;;;;2.25;1.00;;;;;;;23.04;46.25;101458.56;5009086;28;20037;-70
2021/06/21 04:57:00;;;;;;;1.90;1.10;;;;;;;23.03;46.51;101463.09;4975236;28;20041;-69
2021/06/21 04:59:26;;;;;;;2.80;1.15;;;;;;;23.03;46.07;101468.44;4975035;28;20033;-70
2021/06/21 05:01:51;;;;;;;3.20;1.40;;;;;;;23.04;46.18;101466.59;4991324;28;20416;-70
2021/06/21 05:04:17;;;;;;;1.52;1.00;;;;;;;23.03;45.93;101468.44;4973990;28;20400;-70
2021/06/21 05:06:42;;;;;;;0.98;0.73;;;;;;;23.02;46.44;101464.94;4990657;28;20453;-69
2021/06/21 05:09:09;;;;;;;2.25;1.00;;;;;;;23.01;46.11;101465.16;4982415;28;20033;-70
2021/06/21 05:11:35;;;;;;;1.77;0.90;;;;;;;23.02;46.20;101472.97;5008219;28;20038;-71
2021/06/21 05:14:01;;;;;;;3.30;1.30;;;;;;;23.02;46.03;101478.31;4990512;28;20564;-70
2021/06/21 05:16:27;;;;;;;2.33;0.85;;;;;;;23.03;46.03;101481.81;5007917;28;20038;-70
2021/06/21 05:18:53;;;;;;;2.47;0.90;;;;;;;23.02;46.04;101485.53;4990406;28;20124;-70
2021/06/21 05:21:19;;;;;;;2.90;1.10;;;;;;;23.02;45.83;101485.53;4974948;28;20389;-70
2021/06/21 05:23:45;;;;;;;3.55;1.13;;;;;;;23.01;45.75;101483.88;4990363;28;20914;-70
2021/06/21 05:26:10;;;;;;;3.55;1.20;;;;;;;23.00;45.73;101480.38;4971537;28;20100;-70
2021/06/21 05:28:35;;;;;;;2.75;1.00;;;;;;;23.00;45.99;101490.28;4981190;28;20033;-70
2021/06/21 05:31:01;;;;;;;2.30;1.00;;;;;;;23.01;45.61;101497.28;4990772;28;20410;-70
2021/06/21 05:33:27;;;;;;;3.05;1.00;;;;;;;23.00;45.74;101493.78;5008182;28;20066;-70
2021/06/21 05:35:52;;;;;;;2.42;1.10;;;;;;;23.00;45.92;101493.78;5007979;28;20466;-70
2021/06/21 05:38:18;;;;;;;4.05;1.30;;;;;;;22.99;45.96;101502.81;4990435;28;20553;-69
2021/06/21 05:40:43;;;;;;;2.60;1.25;;;;;;;22.99;45.40;101502.81;4991303;28;20037;-70
2021/06/21 05:43:09;;;;;;;2.85;0.80;;;;;;;22.99;45.60;101499.31;4991175;28;20033;-69
2021/06/21 05:45:35;;;;;;;2.80;0.90;;;;;;;23.00;45.77;101504.47;5009317;28;20034;-69
2021/06/21 05:48:01;;;;;;;2.58;1.17;;;;;;;23.00;45.53;101509.00;5012919;28;20041;-69
2021/06/21 05:50:26;;;;;;;1.98;0.90;;;;;;;23.00;45.70;101509.00;4993721;28;20034;-69
2021/06/21 05:52:52;;;;;;;3.17;1.20;;;;;;;22.99;45.63;101512.72;4994530;28;20087;-70
2021/06/21 05:55:18;;;;;;;1.88;1.00;;;;;;;22.99;45.69;101510.03;5003854;28;20042;-69
2021/06/21 05:57:45;;;;;;;3.47;0.95;;;;;;;22.99;45.53;101513.53;4991689;28;20238;-68
2021/06/21 06:00:12;;;;;;;2.67;0.93;;;;;;;22.99;45.51;101512.72;4989298;28;20052;-70
2021/06/21 06:02:37;;;;;;;2.85;1.20;;;;;;;22.99;45.66;101518.06;5003569;28;20349;-69
2021/06/21 06:05:04;;;;;;;2.40;1.10;;;;;;;22.98;45.64;101516.41;5011733;28;20032;-69
2021/06/21 06:07:29;;;;;;;1.67;0.73;;;;;;;22.98;45.22;101524.44;4994340;28;20030;-69
2021/06/21 06:09:57;;;;;;;6.03;1.67;;;;;;;22.98;45.29;101522.59;5012097;28;20033;-69
2021/06/21 06:12:23;;;;;;;3.17;0.95;;;;;;;22.98;45.12;101527.94;5012181;28;20034;-68
2021/06/21 06:14:49;;;;;;;2.22;0.95;;;;;;;22.97;45.16;101531.63;5011748;28;20054;-69
2021/06/21 06:17:14;;;;;;;1.88;0.90;;;;;;;22.97;45.44;101525.47;4994374;28;20046;-69
2021/06/21 06:19:40;;;;;;;3.10;1.00;;;;;;;22.97;45.52;101537.00;4992937;28;20034;-68
2021/06/21 06:22:06;;;;;;;2.33;1.02;;;;;;;22.98;45.26;101535.97;5012447;28;20037;-69
2021/06/21 06:24:33;;;;;;;2.63;1.00;;;;;;;22.98;45.24;101533.28;5011876;28;20137;-70
2021/06/21 06:26:58;;;;;;;3.65;1.25;;;;;;;22.97;45.01;101542.34;4994395;28;20026;-69
2021/06/21 06:29:24;;;;;;;3.35;1.10;;;;;;;22.97;44.90;101534.31;4978239;28;21434;-69
2021/06/21 06:31:49;;;;;;;2.65;0.90;;;;;;;22.98;45.08;101538.63;4977657;28;20120;-68
2021/06/21 06:34:15;;;;;;;2.00;1.08;;;;;;;22.97;45.08;101541.53;4993394;28;20064;-69
2021/06/21 06:36:41;;;;;;;3.80;1.02;;;;;;;22.97;44.86;101546.88;4977303;28;20037;-69
2021/06/21 06:39:08;;;;;;;3.72;1.15;;;;;;;22.97;45.41;101546.88;5011621;28;20026;-69
2021/06/21 06:41:35;;;;;;;3.80;1.05;;;;;;;22.98;46.05;101548.53;4980386;28;20393;-69
2021/06/21 06:44:01;;;;;;;4.22;1.15;;;;;;;22.98;45.85;101553.88;5011155;28;20501;-68
2021/06/21 06:46:27;;;;;;;5.20;1.17;;;;;;;22.98;46.14;101549.34;4982674;28;20050;-66
2021/06/21 06:48:52;;;;;;;6.18;1.10;;;;;;;22.99;46.38;101544.81;5010464;28;20030;-67
2021/06/21 06:51:19;;;;;;;13.02;1.70;;;;;;;22.97;45.66;101557.56;4977573;28;20466;-71
2021/06/21 06:53:52;;;;;;;5.13;1.52;;;;;;;22.96;45.64;101563.94;4997659;28;20079;-72
2021/06/21 06:59:03;;;;;;;4.53;1.60;;;;;;;22.90;44.87;101556.75;4979096;28;20097;-69
2021/06/21 07:01:29;;;;;;;4.90;1.65;;;;;;;22.89;44.35;101558.59;4959956;28;20030;-71
2021/06/21 07:03:55;;;;;;;5.97;1.80;;;;;;;22.86;44.04;101561.66;4975681;28;20474;-71
2021/06/21 07:06:20;;;;;;;9.57;2.58;;;;;;;22.83;43.35;101567.41;4976196;28;20037;-71
2021/06/21 07:08:46;;;;;;;8.75;2.00;;;;;;;22.81;43.04;101563.25;4986040;28;20457;-70
2021/06/21 07:11:15;;;;;;;3.97;1.65;;;;;;;22.77;43.31;101564.69;5010727;28;20525;-68
2021/06/21 07:13:41;;;;;;;7.35;2.35;;;;;;;22.74;42.95;101565.91;4966941;28;20042;-71
2021/06/21 07:16:07;;;;;;;6.43;1.98;;;;;;;22.74;42.65;101573.09;4972744;28;20036;-73
2021/06/21 07:18:33;;;;;;;11.55;2.40;;;;;;;22.71;42.73;101574.31;4977845;28;20470;-71
2021/06/21 07:20:59;;;;;;;6.18;1.88;;;;;;;22.68;42.82;101580.06;4993638;28;20033;-71
2021/06/21 07:23:24;;;;;;;6.80;2.10;;;;;;;22.67;42.68;101581.91;4995614;28;20046;-72
2021/06/21 07:25:50;;;;;;;7.05;2.42;;;;;;;22.66;42.16;101582.94;4956892;28;20033;-71
2021/06/21 07:28:16;;;;;;;12.68;2.58;;;;;;;22.63;41.95;101583.34;4981737;28;20405;-71
2021/06/21 07:30:45;;;;;;;17.15;3.38;;;;;;;22.60;41.48;101583.75;4974880;28;20038;-68
2021/06/21 07:33:11;;;;;;;10.35;2.85;;;;;;;22.57;41.63;101586.00;4991299;28;20041;-68
2021/06/21 07:35:41;;;;;;;9.63;3.00;;;;;;;22.54;41.58;101592.53;5009523;28;20069;-73
2021/06/21 07:38:10;;;;;;;12.45;2.85;;;;;;;22.54;41.71;101599.72;4975863;28;20046;-73
2021/06/21 07:40:39;;;;;;;11.63;2.97;;;;;;;22.53;41.25;101598.91;4986314;28;20026;-71
2021/06/21 07:43:05;;;;;;;9.25;2.72;;;;;;;22.54;41.39;101599.72;5003945;28;20116;-70
2021/06/21 07:45:31;;;;;;;10.68;2.78;;;;;;;22.51;41.71;101606.31;4976367;28;20465;-70
2021/06/21 07:47:58;;;;;;;6.78;2.80;;;;;;;22.52;41.32;101607.94;5010622;28;20037;-69
2021/06/21 07:50:27;;;;;;;14.73;3.90;;;;;;;22.52;41.66;101613.31;4991733;28;20100;-70
2021/06/21 07:52:53;;;;;;;12.43;4.13;;;;;;;22.52;41.34;101607.13;4993293;28;20065;-70
2021/06/21 07:55:19;;;;;;;21.98;4.30;;;;;;;22.51;41.32;101608.97;4980530;28;20045;-70
2021/06/21 07:57:44;;;;;;;18.38;4.10;;;;;;;22.51;41.27;101611.66;4960219;28;20033;-70
2021/06/21 08:00:11;;;;;;;12.65;4.38;;;;;;;22.50;41.37;101619.88;5010283;28;20022;-69
2021/06/21 08:02:36;;;;;;;19.38;4.90;;;;;;;22.50;41.77;101625.22;4999578;28;20033;-69
2021/06/21 08:05:03;;;;;;;17.88;4.93;;;;;;;22.51;42.13;101622.34;5009984;28;20095;-70
2021/06/21 08:07:28;;;;;;;16.92;4.30;;;;;;;22.51;41.88;101619.66;4970144;28;20045;-70
2021/06/21 08:09:54;;;;;;;16.35;4.10;;;;;;;22.50;41.45;101619.88;4987814;28;20034;-70
2021/06/21 08:12:20;;;;;;;14.60;4.40;;;;;;;22.48;41.34;101622.75;5008304;28;20033;-70
2021/06/21 08:14:46;;;;;;;12.50;3.90;;;;;;;22.47;41.34;101630.97;4990863;28;20128;-70
2021/06/21 08:17:12;;;;;;;10.43;3.70;;;;;;;22.45;40.88;101644.53;4991917;28;20045;-69
2021/06/21 08:19:37;;;;;;;9.32;3.70;;;;;;;22.43;41.05;101641.22;4969566;28;20098;-70
2021/06/21 08:22:03;;;;;;;10.68;3.25;;;;;;;22.40;40.52;101642.41;4968441;28;20049;-69
2021/06/21 08:24:29;;;;;;;7.75;3.58;;;;;;;22.37;40.67;101644.66;4991355;28;20030;-70
2021/06/21 08:26:59;;;;;;;9.40;3.35;;;;;;;22.33;40.52;101648.75;4975843;28;20092;-69
2021/06/21 08:29:25;;;;;;;6.30;3.03;;;;;;;22.30;40.53;101638.47;5009009;28;20050;-71
2021/06/21 08:31:50;;;;;;;5.82;3.08;;;;;;;22.26;40.08;101642.53;4991693;28;20040;-70
2021/06/21 08:34:16;;;;;;;6.18;3.00;;;;;;;22.23;40.30;101642.91;4991194;28;20046;-70
2021/06/21 08:36:41;;;;;;;5.18;2.67;;;;;;;22.19;39.81;101639.81;4982779;28;20117;-70
2021/06/21 08:39:06;;;;;;;9.18;3.10;;;;;;;22.17;39.77;101643.69;4974985;28;20092;-69
2021/06/21 08:41:32;;;;;;;5.97;3.22;;;;;;;22.13;39.73;101653.97;5003860;28;20073;-69
2021/06/21 08:43:57;;;;;;;5.55;3.20;;;;;;;22.11;39.68;101656.00;4990929;28;20448;-69
2021/06/21 08:46:23;;;;;;;9.52;3.25;;;;;;;22.09;39.57;101658.88;4968547;28;20049;-69
2021/06/21 08:48:51;;;;;;;7.50;3.42;;;;;;;22.07;39.41;101658.22;4988813;28;20038;-70
2021/06/21 08:51:17;;;;;;;9.30;3.30;;;;;;;22.05;39.19;101660.25;4956252;28;20149;-69
2021/06/21 08:53:42;;;;;;;7.57;2.83;;;;;;;;;;4974358;28;20562;-69
2021/06/21 08:56:10;;;;;;;7.78;2.83;;;;;;;22.03;39.37;101650.75;5009091;28;20026;-69
2021/06/21 08:58:35;;;;;;;6.10;3.20;;;;;;;22.02;39.13;101657.94;4990588;28;20061;-69
2021/06/21 09:01:01;;;;;;;7.63;2.92;;;;;;;22.01;39.01;101652.78;5009606;28;20072;-70
2021/06/21 09:03:27;;;;;;;9.70;3.55;;;;;;;22.01;39.28;101658.13;5008009;28;20041;-69
2021/06/21 09:05:52;;;;;;;7.75;3.25;;;;;;;21.99;39.44;101666.34;4990853;28;20074;-69
2021/06/21 09:08:18;;;;;;;9.02;3.50;;;;;;;21.99;38.97;101665.50;4991174;28;20540;-69
2021/06/21 09:10:43;;;;;;;8.55;3.00;;;;;;;21.99;39.29;101655.66;5008178;28;20131;-69
2021/06/21 09:13:16;;;;;;;9.40;3.40;;;;;;;21.99;38.86;101663.66;4975263;28;20037;-69
2021/06/21 09:15:42;;;;;;;5.90;2.70;;;;;;;21.98;38.97;101664.69;4987564;28;20069;-69
2021/06/21 09:18:47;;;;;;;8.73;3.65;;;;;;;21.93;38.64;101663.59;4989077;28;20046;-69
2021/06/21 09:21:26;;;;;;;6.95;3.00;;;;;;;21.94;38.40;101660.75;4947360;29;20075;-70
2021/06/21 09:23:56;;;;;;;6.68;3.13;;;;;;;21.95;38.52;101654.41;4941447;29;20038;-69
2021/06/21 09:26:25;;;;;;;6.57;3.20;;;;;;;21.96;38.50;101661.38;4971464;28;20042;-69
2021/06/21 09:28:51;;;;;;;8.90;3.25;;;;;;;21.95;38.54;101657.06;4988127;28;20397;-69
2021/06/21 09:31:17;;;;;;;8.13;3.45;;;;;;;21.95;38.14;101659.72;4989134;28;20038;-69
2021/06/21 09:33:44;;;;;;;6.15;3.10;;;;;;;21.94;38.22;101658.09;4988480;28;20129;-70
2021/06/21 09:36:23;;;;;;;6.10;3.30;;;;;;;21.96;38.08;101657.88;4987717;28;20057;-69
2021/06/21 09:39:16;;;;;;;5.60;3.17;;;;;;;21.92;38.05;101660.09;4987622;28;20145;-69
2021/06/21 09:41:42;;;;;;;6.32;3.58;;;;;;;21.95;37.87;101643.72;4975215;28;20035;-69
2021/06/21 09:44:07;;;;;;;8.20;3.25;;;;;;;21.95;37.72;101659.72;4988859;28;20117;-69
2021/06/21 09:46:33;;;;;;;10.05;3.60;;;;;;;21.94;37.47;101651.91;4988900;28;20041;-69
2021/06/21 09:48:58;;;;;;;7.43;3.13;;;;;;;21.94;37.56;101657.25;4987112;28;20034;-69
2021/06/21 09:51:32;;;;;;;7.32;3.40;;;;;;;21.94;37.69;101667.94;4989192;28;20042;-69
2021/06/21 09:54:13;;;;;;;10.55;3.30;;;;;;;21.94;37.19;101654.59;4989192;28;20507;-69
2021/06/21 09:56:51;;;;;;;7.50;3.00;;;;;;;21.95;37.46;101662.41;4982203;28;20050;-69
2021/06/21 09:59:16;;;;;;;7.75;2.85;;;;;;;21.96;37.31;101658.72;4984768;28;20050;-69
2021/06/21 10:01:42;;;;;;;7.57;3.22;;;;;;;21.96;36.74;101664.06;4988644;28;20145;-69
2021/06/21 10:04:23;;;;;;;8.00;3.05;;;;;;;21.93;36.52;101656.41;4988536;28;20031;-69
2021/06/21 10:06:49;;;;;;;6.53;2.67;;;;;;;21.95;36.99;101659.72;4981539;28;20492;-69
2021/06/21 10:09:15;;;;;;;8.30;2.95;;;;;;;21.96;36.60;101657.88;4971623;28;20042;-69
2021/06/21 10:11:43;;;;;;;11.07;3.58;;;;;;;21.98;36.38;101658.53;4986993;28;20062;-69
2021/06/21 10:14:19;;;;;;;9.85;3.45;;;;;;;21.95;36.32;101657.06;4987340;28;20061;-69
2021/06/21 10:16:48;;;;;;;8.90;3.47;;;;;;;21.98;36.23;101645.16;4986874;28;20069;-69
2021/06/21 10:19:15;;;;;;;9.50;3.03;;;;;;;21.98;36.41;101651.34;4988568;28;20030;-69
2021/06/21 10:21:44;;;;;;;11.48;3.58;;;;;;;21.97;36.18;101656.88;4988087;28;20034;-69
2021/06/21 10:24:11;;;;;;;9.00;3.45;;;;;;;21.97;36.02;101667.56;4988454;28;20496;-69
2021/06/21 10:26:42;;;;;;;8.15;2.88;;;;;;;21.96;36.02;101673.91;4988589;28;20034;-69
2021/06/21 10:29:08;;;;;;;6.45;3.33;;;;;;;21.96;36.07;101674.75;4988463;28;20026;-69
2021/06/21 10:31:34;;;;;;;6.70;2.70;;;;;;;21.94;35.77;101665.28;4989434;28;20501;-69
2021/06/21 10:34:04;;;;;;;8.50;3.35;;;;;;;21.94;36.15;101666.09;4990649;28;20030;-69
2021/06/21 10:36:50;;;;;;;8.02;3.03;;;;;;;21.90;35.68;101672.81;4991689;28;20029;-69
2021/06/21 10:39:25;;;;;;;5.28;2.90;;;;;;;21.92;35.44;101660.09;4992305;28;20041;-69
2021/06/21 10:42:06;;;;;;;4.65;2.58;;;;;;;21.92;35.51;101659.25;4978700;28;20081;-69
2021/06/21 10:44:38;;;;;;;8.95;3.00;;;;;;;21.92;35.51;101659.25;4983641;28;20088;-69
2021/06/21 10:47:36;;;;;;;6.40;3.20;;;;;;;21.90;35.66;101662.13;4992242;28;20030;-69
2021/06/21 10:50:01;;;;;;;4.90;2.70;;;;;;;21.92;35.50;101661.94;4986536;28;20100;-69
2021/06/21 10:52:54;;;;;;;7.25;2.97;;;;;;;21.89;35.23;101659.66;4991415;28;20042;-69
2021/06/21 10:55:20;;;;;;;5.18;3.30;;;;;;;21.92;35.54;101660.09;4990298;28;20394;-69
2021/06/21 10:57:47;;;;;;;7.25;3.47;;;;;;;21.92;35.30;101661.94;4990495;28;20034;-69
2021/06/21 11:00:14;;;;;;;5.30;3.33;;;;;;;21.92;35.21;101659.25;4991525;28;20129;-69
2021/06/21 11:02:40;;;;;;;5.18;3.45;;;;;;;21.92;35.09;101659.25;4973892;28;20034;-69
2021/06/21 11:05:06;;;;;;;9.73;3.45;;;;;;;21.92;35.36;101660.09;4991614;28;20398;-69
2021/06/21 11:07:32;;;;;;;5.85;3.13;;;;;;;21.92;35.38;101661.94;4990412;28;20069;-69
2021/06/21 11:09:59;;;;;;;5.18;3.22;;;;;;;21.91;35.04;101663.78;4990086;28;20429;-69
2021/06/21 11:12:30;;;;;;;5.38;2.90;;;;;;;21.90;35.24;101662.13;4973564;28;20038;-71
2021/06/21 11:17:42;;;;;;;8.10;3.58;;;;;;;21.89;34.92;101668.50;5010987;28;20653;-69
2021/06/21 11:20:29;;;;;;;4.65;2.88;;;;;;;21.88;35.16;101674.84;5010554;28;20155;-69
2021/06/21 11:23:02;;;;;;;5.85;3.47;;;;;;;21.91;35.18;101668.31;4993159;28;20386;-70
2021/06/21 11:25:49;;;;;;;6.47;3.10;;;;;;;21.93;35.26;101672.44;5010989;28;20497;-69
2021/06/21 11:28:36;;;;;;;11.43;3.90;;;;;;;21.91;35.14;101676.31;5006410;28;20041;-69
2021/06/21 11:31:28;;;;;;;6.22;3.33;;;;;;;21.90;35.30;101680.84;5011149;28;20080;-69
2021/06/21 11:34:01;;;;;;;5.82;3.78;;;;;;;21.94;35.34;101686.66;5002297;28;20041;-69
2021/06/21 11:36:39;;;;;;;5.95;3.55;;;;;;;21.93;35.16;101688.47;5009945;28;20476;-69